Decoded Metar for KLND (LANDER in WY, USA) (IATA:LND) | Meteo·Mobile Aviation Weather
aviador You're here:

KLND Decoded Metar

LANDER in WY, USA
Report Time2019-05-19 21:53:00
UTC Time2019-05-19 22:31:41
Flight Rules mvfr MVFR
Wind030° at 06 kt
W.Decomp.*RWY 03: 5.8 kt HW 1.5 kt LCW
Visibility9999 m
Phenomena:Light Rain
Clouds:Scattered 019 Hf
Broken 027 Hf
Overcast 036 Hf
Expected CloudBase > 1,600 ft AGL from Temp-Dew spread
Ceiling2,700 ft
Temp05°C (ISA +1)
Dew Point01°C (76% RH)
AAT1.0°C
QNH1011 hPa
Density Alt5,853 ft
Elevation5,558 ft
Report Wrong Elevation
Raw Report
KLND 192153Z AUTO 03006KT 9SM -RA SCT019 BKN027 OVC036 05/01 A2986
RMK AO2 SLP111 P0001 T00500011=

Extra information for KLND:More info

Metar Taf Metar & Taf Last 4 Metars F.Rules Stats Wind Profile Meteogram Temp Stats Airport Information Weather charts Add Link Nearby VenuesMetar ALERT Operation Metar Decoded Social comments

AIRNAV info for KLND